Time;durP1;ratioP1;P1;durP2;ratioP2;P2;SDS_P1;SDS_P2;PMS_P1;PMS_P2;Temp;Humidity;BMP_temperature;BMP_pressure;BME280_temperature;BME280_humidity;BME280_pressure;Samples;Min_cycle;Max_cycle;Signal;HPM_P1;HPM_P2
2022/06/09 00:01:34;;;;;;;0.00;0.00;;;;;;;;;;5024195;28;20097;-58
2022/06/09 00:04:03;;;;;;;0.00;0.00;;;;;;;;;;5032027;28;20500;-58
2022/06/09 00:06:39;;;;;;;0.00;0.00;;;;;;;;;;5031242;28;20046;-59
2022/06/09 00:09:06;;;;;;;0.00;0.00;;;;;;;;;;5011754;28;20113;-56
2022/06/09 00:11:34;;;;;;;0.00;0.00;;;;;;;;;;5011452;28;20484;-59
2022/06/09 00:14:01;;;;;;;0.00;0.00;;;;;;;;;;5012445;28;20086;-59
2022/06/09 00:16:28;;;;;;;0.00;0.00;;;;;;;;;;5011783;28;20105;-59
2022/06/09 00:18:55;;;;;;;0.00;0.00;;;;;;;;;;5024560;28;20046;-58
2022/06/09 00:21:23;;;;;;;0.00;0.00;;;;;;;;;;5011796;28;20085;-56
2022/06/09 00:23:50;;;;;;;0.00;0.00;;;;;;;;;;5011142;28;20567;-58
2022/06/09 00:26:16;;;;;;;0.00;0.00;;;;;;;;;;5013207;28;20055;-59
2022/06/09 00:28:43;;;;;;;0.00;0.00;;;;;;;;;;5011498;28;20192;-58
2022/06/09 00:31:09;;;;;;;0.00;0.00;;;;;;;;;;5028561;28;20104;-59
2022/06/09 00:33:36;;;;;;;0.00;0.00;;;;;;;;;;5031527;28;20050;-58
2022/06/09 00:36:02;;;;;;;0.00;0.00;;;;;;;;;;5012252;28;20082;-58
2022/06/09 00:38:29;;;;;;;0.00;0.00;;;;;;;;;;5010766;28;20583;-58
2022/06/09 00:40:57;;;;;;;0.00;0.00;;;;;;;;;;5013856;28;20089;-58
2022/06/09 00:43:23;;;;;;;0.00;0.00;;;;;;;;;;5015375;28;20471;-58
2022/06/09 00:46:13;;;;;;;0.00;0.00;;;;;;;;;;5010638;28;20050;-58
2022/06/09 00:48:44;;;;;;;0.00;0.00;;;;;;;;;;5010982;28;20086;-58
2022/06/09 00:51:15;;;;;;;0.00;0.00;;;;;;;;;;5029128;28;20089;-59
2022/06/09 00:53:42;;;;;;;0.00;0.00;;;;;;;;;;5028890;28;20136;-59
2022/06/09 00:56:10;;;;;;;0.15;0.15;;;;;;;;;;5017305;28;20062;-58
2022/06/09 00:58:37;;;;;;;0.00;0.00;;;;;;;;;;5011577;28;20042;-58
2022/06/09 01:01:05;;;;;;;0.00;0.00;;;;;;;;;;5010098;28;20062;-58
2022/06/09 01:03:38;;;;;;;0.00;0.00;;;;;;;;;;5010828;28;20055;-59
2022/06/09 01:06:07;;;;;;;0.00;0.00;;;;;;;;;;5029242;28;20045;-58
2022/06/09 01:08:35;;;;;;;0.00;0.00;;;;;;;;;;5031523;28;20084;-58
2022/06/09 01:11:04;;;;;;;0.00;0.00;;;;;;;;;;5012727;28;20101;-59
2022/06/09 01:13:32;;;;;;;0.00;0.00;;;;;;;;;;5010839;28;20125;-59
2022/06/09 01:16:07;;;;;;;0.00;0.00;;;;;;;;;;5012208;28;20046;-59
2022/06/09 01:18:36;;;;;;;0.00;0.00;;;;;;;;;;5017900;28;20069;-58
2022/06/09 01:21:15;;;;;;;0.00;0.00;;;;;;;;;;5030095;28;20521;-58
2022/06/09 01:23:54;;;;;;;0.10;0.10;;;;;;;;;;5031617;28;20509;-59
2022/06/09 01:26:33;;;;;;;0.00;0.00;;;;;;;;;;5013682;28;20556;-59
2022/06/09 01:29:12;;;;;;;0.00;0.00;;;;;;;;;;5010892;28;20584;-59
2022/06/09 01:31:38;;;;;;;;;;;;;;;;;;5012296;28;20109;-59
2022/06/09 01:34:12;;;;;;;0.00;0.00;;;;;;;;;;5010702;28;45706;-58
2022/06/09 01:36:42;;;;;;;0.00;0.00;;;;;;;;;;5011046;28;20559;-58
2022/06/09 01:39:09;;;;;;;0.00;0.00;;;;;;;;;;5011059;28;20117;-59
2022/06/09 01:41:35;;;;;;;0.00;0.00;;;;;;;;;;5011736;28;20090;-58
2022/06/09 01:44:02;;;;;;;0.17;0.08;;;;;;;;;;5011017;28;20141;-58
2022/06/09 01:46:33;;;;;;;0.17;0.10;;;;;;;;;;5010088;28;20050;-58
2022/06/09 01:49:01;;;;;;;0.00;0.00;;;;;;;;;;5010962;28;20140;-58
2022/06/09 01:51:30;;;;;;;0.00;0.00;;;;;;;;;;5028203;28;20054;-59
2022/06/09 01:53:59;;;;;;;0.00;0.00;;;;;;;;;;5029029;28;20081;-58
2022/06/09 01:56:28;;;;;;;0.00;0.00;;;;;;;;;;5021278;28;20121;-59
2022/06/09 01:59:15;;;;;;;0.00;0.00;;;;;;;;;;5021610;28;20132;-59
2022/06/09 02:01:48;;;;;;;0.10;0.10;;;;;;;;;;5013171;28;20527;-59
2022/06/09 02:04:23;;;;;;;0.00;0.00;;;;;;;;;;5012041;28;20606;-58
2022/06/09 02:06:50;;;;;;;1.08;1.08;;;;;;;;;;5021123;28;20081;-59
2022/06/09 02:09:17;;;;;;;0.00;0.00;;;;;;;;;;5027096;28;20098;-59
2022/06/09 02:11:51;;;;;;;0.20;0.10;;;;;;;;;;5029072;28;20062;-59
2022/06/09 02:14:18;;;;;;;0.00;0.00;;;;;;;;;;5030311;28;20085;-59
2022/06/09 02:16:44;;;;;;;0.00;0.00;;;;;;;;;;5027910;28;20105;-57
2022/06/09 02:19:11;;;;;;;0.00;0.00;;;;;;;;;;5021605;28;20065;-58
2022/06/09 02:21:38;;;;;;;0.00;0.00;;;;;;;;;;5010722;28;20054;-59
2022/06/09 02:24:05;;;;;;;2.25;0.35;;;;;;;;;;5010875;28;20058;-58
2022/06/09 02:26:31;;;;;;;0.00;0.00;;;;;;;;;;5018075;28;20054;-58
2022/06/09 02:28:57;;;;;;;0.70;0.40;;;;;;;;;;5008059;28;20062;-58
2022/06/09 02:31:24;;;;;;;0.00;0.00;;;;;;;;;;5025612;28;20531;-58
2022/06/09 02:33:51;;;;;;;0.00;0.00;;;;;;;;;;5027611;28;20124;-58
2022/06/09 02:36:18;;;;;;;0.00;0.00;;;;;;;;;;5026063;28;20104;-58
2022/06/09 02:38:44;;;;;;;0.00;0.00;;;;;;;;;;5029527;28;20101;-57
2022/06/09 02:41:11;;;;;;;0.00;0.00;;;;;;;;;;5025788;28;20531;-59
2022/06/09 02:43:37;;;;;;;0.00;0.00;;;;;;;;;;5029179;28;20058;-58
2022/06/09 02:46:04;;;;;;;0.00;0.00;;;;;;;;;;5019511;28;20060;-57
2022/06/09 02:48:30;;;;;;;0.00;0.00;;;;;;;;;;5029706;28;20151;-59
2022/06/09 02:50:57;;;;;;;0.00;0.00;;;;;;;;;;5026633;28;20085;-58
2022/06/09 02:53:23;;;;;;;0.00;0.00;;;;;;;;;;5029517;28;20077;-62
2022/06/09 02:55:50;;;;;;;0.00;0.00;;;;;;;;;;5012481;28;20066;-58
2022/06/09 02:58:16;;;;;;;0.05;0.00;;;;;;;;;;5009990;28;20054;-58
2022/06/09 03:00:43;;;;;;;0.00;0.00;;;;;;;;;;5011827;28;20109;-58
2022/06/09 03:03:11;;;;;;;0.10;0.10;;;;;;;;;;5010278;28;20571;-59
2022/06/09 03:05:38;;;;;;;0.00;0.00;;;;;;;;;;5016857;28;20201;-58
2022/06/09 03:08:06;;;;;;;0.00;0.00;;;;;;;;;;5029861;28;20054;-59
2022/06/09 03:10:34;;;;;;;0.90;0.82;;;;;;;;;;5014112;28;20512;-58
2022/06/09 03:13:00;;;;;;;0.00;0.00;;;;;;;;;;5009729;28;20078;-58
2022/06/09 03:15:27;;;;;;;0.00;0.00;;;;;;;;;;5009226;28;20117;-58
2022/06/09 03:17:53;;;;;;;0.00;0.00;;;;;;;;;;5012717;28;20551;-58
2022/06/09 03:20:25;;;;;;;0.00;0.00;;;;;;;;;;5009382;28;20133;-58
2022/06/09 03:22:51;;;;;;;0.00;0.00;;;;;;;;;;5009681;28;20113;-58
2022/06/09 03:25:18;;;;;;;0.00;0.00;;;;;;;;;;5007886;28;20059;-59
2022/06/09 03:27:44;;;;;;;0.00;0.00;;;;;;;;;;5011673;28;20081;-57
2022/06/09 03:30:11;;;;;;;0.00;0.00;;;;;;;;;;5014790;28;20828;-59
2022/06/09 03:32:37;;;;;;;0.00;0.00;;;;;;;;;;5010128;28;20134;-58
2022/06/09 03:35:05;;;;;;;0.00;0.00;;;;;;;;;;5010918;28;20054;-58
2022/06/09 03:37:31;;;;;;;0.00;0.00;;;;;;;;;;5029095;28;20049;-58
2022/06/09 03:39:58;;;;;;;0.00;0.00;;;;;;;;;;5016313;28;20568;-58
2022/06/09 03:42:24;;;;;;;0.00;0.00;;;;;;;;;;5007838;28;20062;-59
2022/06/09 03:44:50;;;;;;;0.00;0.00;;;;;;;;;;5009174;28;20050;-58
2022/06/09 03:47:17;;;;;;;0.00;0.00;;;;;;;;;;5009439;28;20055;-59
2022/06/09 03:49:43;;;;;;;0.00;0.00;;;;;;;;;;5018745;28;20050;-57
2022/06/09 03:52:10;;;;;;;0.00;0.00;;;;;;;;;;5018363;28;20564;-58
2022/06/09 03:54:36;;;;;;;0.00;0.00;;;;;;;;;;5014030;28;20050;-58
2022/06/09 03:57:03;;;;;;;0.00;0.00;;;;;;;;;;5009429;28;20054;-58
2022/06/09 03:59:30;;;;;;;0.00;0.00;;;;;;;;;;5016223;28;20416;-58
2022/06/09 04:01:56;;;;;;;0.00;0.00;;;;;;;;;;5021112;28;20059;-58
2022/06/09 04:04:22;;;;;;;0.00;0.00;;;;;;;;;;5009309;28;20520;-59
2022/06/09 04:06:49;;;;;;;0.00;0.00;;;;;;;;;;5008119;28;21844;-58
2022/06/09 04:09:16;;;;;;;0.00;0.00;;;;;;;;;;5016355;28;20050;-57
2022/06/09 04:11:42;;;;;;;0.00;0.00;;;;;;;;;;5009031;28;20101;-57
2022/06/09 04:14:09;;;;;;;0.10;0.10;;;;;;;;;;5008931;28;20144;-59
2022/06/09 04:16:36;;;;;;;0.00;0.00;;;;;;;;;;5008762;28;20055;-58
2022/06/09 04:19:05;;;;;;;0.00;0.00;;;;;;;;;;5010260;28;20058;-58
2022/06/09 04:21:31;;;;;;;;;;;;;;;;;;5027902;28;20100;-58
2022/06/09 04:23:58;;;;;;;0.00;0.00;;;;;;;;;;5020080;28;43833;-58
2022/06/09 04:26:25;;;;;;;0.00;0.00;;;;;;;;;;5008687;28;20113;-57
2022/06/09 04:28:52;;;;;;;0.27;0.10;;;;;;;;;;5008105;28;20058;-58
2022/06/09 04:31:18;;;;;;;0.00;0.00;;;;;;;;;;5008556;28;20058;-58
2022/06/09 04:33:45;;;;;;;0.00;0.00;;;;;;;;;;5012454;28;20060;-58
2022/06/09 04:36:14;;;;;;;0.00;0.00;;;;;;;;;;5017738;28;20520;-59
2022/06/09 04:38:40;;;;;;;0.00;0.00;;;;;;;;;;5008321;28;20054;-56
2022/06/09 04:41:09;;;;;;;0.10;0.10;;;;;;;;;;5011365;28;20552;-59
2022/06/09 04:43:36;;;;;;;0.00;0.00;;;;;;;;;;5012444;28;20061;-58
2022/06/09 04:46:04;;;;;;;0.00;0.00;;;;;;;;;;5011863;28;20511;-57
2022/06/09 04:48:30;;;;;;;0.00;0.00;;;;;;;;;;5012573;28;20054;-57
2022/06/09 04:50:57;;;;;;;0.55;0.22;;;;;;;;;;5023808;28;20124;-59
2022/06/09 04:53:23;;;;;;;0.00;0.00;;;;;;;;;;5031348;28;20148;-57
2022/06/09 04:55:49;;;;;;;0.00;0.00;;;;;;;;;;5018441;28;20062;-59
2022/06/09 04:58:16;;;;;;;0.00;0.00;;;;;;;;;;5032183;28;20058;-57
2022/06/09 05:00:43;;;;;;;0.00;0.00;;;;;;;;;;5029108;28;20148;-57
2022/06/09 05:03:11;;;;;;;0.00;0.00;;;;;;;;;;5028668;28;20057;-57
2022/06/09 05:05:40;;;;;;;0.55;0.55;;;;;;;;;;5031781;28;20062;-58
2022/06/09 05:08:06;;;;;;;0.00;0.00;;;;;;;;;;5031273;28;20046;-59
2022/06/09 05:10:33;;;;;;;0.00;0.00;;;;;;;;;;5029784;28;20053;-57
2022/06/09 05:12:59;;;;;;;0.00;0.00;;;;;;;;;;5031379;28;20100;-57
2022/06/09 05:15:26;;;;;;;0.00;0.00;;;;;;;;;;5031497;28;20058;-58
2022/06/09 05:17:52;;;;;;;0.00;0.00;;;;;;;;;;5024246;28;20113;-59
2022/06/09 05:20:20;;;;;;;0.00;0.00;;;;;;;;;;5022449;28;20061;-58
2022/06/09 05:22:47;;;;;;;0.00;0.00;;;;;;;;;;5031872;28;20054;-58
2022/06/09 05:25:14;;;;;;;0.00;0.00;;;;;;;;;;5028775;28;20054;-59
2022/06/09 05:27:40;;;;;;;0.00;0.00;;;;;;;;;;5013285;28;20054;-58
2022/06/09 05:30:09;;;;;;;0.03;0.03;;;;;;;;;;5022018;28;20089;-59
2022/06/09 05:32:36;;;;;;;1.10;1.02;;;;;;;;;;5030990;28;20057;-59
2022/06/09 05:35:04;;;;;;;0.00;0.00;;;;;;;;;;5031084;28;20057;-58
2022/06/09 05:44:50;;;;;;;2.10;1.35;;;;;;;;;;5015458;28;20088;-58
2022/06/09 05:45:47;;;;;;;0.00;0.00;;;;;;;;;;5019370;28;20134;-58
2022/06/09 05:48:13;;;;;;;0.00;0.00;;;;;;;;;;5011042;28;20521;-58
2022/06/09 05:50:40;;;;;;;0.00;0.00;;;;;;;;;;5026609;28;21019;-59
2022/06/09 05:53:06;;;;;;;0.00;0.00;;;;;;;;;;5031274;28;20050;-59
2022/06/09 05:55:33;;;;;;;0.00;0.00;;;;;;;;;;5028933;28;20054;-58
2022/06/09 05:58:00;;;;;;;0.00;0.00;;;;;;;;;;5014252;28;20493;-59
2022/06/09 06:00:26;;;;;;;0.00;0.00;;;;;;;;;;5025586;28;20097;-59
2022/06/09 06:02:52;;;;;;;0.00;0.00;;;;;;;;;;5017483;28;20050;-59
2022/06/09 06:08:05;;;;;;;0.00;0.00;;;;;;;;;;5013761;28;20484;-59
2022/06/09 06:10:32;;;;;;;0.00;0.00;;;;;;;;;;5023146;28;20560;-59
2022/06/09 06:12:58;;;;;;;0.00;0.00;;;;;;;;;;5030508;28;20057;-59
2022/06/09 06:15:25;;;;;;;0.00;0.00;;;;;;;;;;5028377;28;20054;-59
2022/06/09 06:17:53;;;;;;;0.00;0.00;;;;;;;;;;5013549;28;20058;-58
2022/06/09 06:20:20;;;;;;;0.00;0.00;;;;;;;;;;5010537;28;20058;-59
2022/06/09 06:22:46;;;;;;;0.00;0.00;;;;;;;;;;5010157;28;20054;-59
2022/06/09 06:25:13;;;;;;;0.00;0.00;;;;;;;;;;5013948;28;20528;-58
2022/06/09 06:27:39;;;;;;;0.00;0.00;;;;;;;;;;5018643;28;20108;-59
2022/06/09 06:30:11;;;;;;;0.00;0.00;;;;;;;;;;5022726;28;20058;-59
2022/06/09 06:32:37;;;;;;;0.00;0.00;;;;;;;;;;5012610;28;20213;-59
2022/06/09 06:35:04;;;;;;;0.00;0.00;;;;;;;;;;5015335;28;20109;-58
2022/06/09 06:37:30;;;;;;;0.55;0.55;;;;;;;;;;5020895;28;20112;-59
2022/06/09 06:39:57;;;;;;;0.70;0.20;;;;;;;;;;5018539;28;20054;-58
2022/06/09 06:42:23;;;;;;;0.20;0.08;;;;;;;;;;5010952;28;20124;-59
2022/06/09 06:44:50;;;;;;;0.00;0.00;;;;;;;;;;5013533;28;20050;-58
2022/06/09 06:47:16;;;;;;;0.00;0.00;;;;;;;;;;5023563;28;20093;-59
2022/06/09 06:49:42;;;;;;;0.00;0.00;;;;;;;;;;5016892;28;20054;-60
2022/06/09 06:52:09;;;;;;;0.00;0.00;;;;;;;;;;5014762;28;20054;-59
2022/06/09 06:54:35;;;;;;;0.00;0.00;;;;;;;;;;5009109;28;20058;-60
2022/06/09 06:57:05;;;;;;;0.00;0.00;;;;;;;;;;5009552;28;20109;-60
2022/06/09 06:59:32;;;;;;;0.85;0.22;;;;;;;;;;5008954;28;20488;-59
2022/06/09 07:01:59;;;;;;;0.00;0.00;;;;;;;;;;5019717;28;20925;-60
2022/06/09 07:04:25;;;;;;;0.00;0.00;;;;;;;;;;5011967;28;21036;-59
2022/06/09 07:06:52;;;;;;;0.00;0.00;;;;;;;;;;5009808;28;20056;-59
2022/06/09 07:09:18;;;;;;;0.00;0.00;;;;;;;;;;5011007;28;20074;-60
2022/06/09 07:11:45;;;;;;;0.08;0.05;;;;;;;;;;5009385;28;20053;-59
2022/06/09 07:14:12;;;;;;;0.00;0.00;;;;;;;;;;5027081;28;21011;-59
2022/06/09 07:16:38;;;;;;;0.00;0.00;;;;;;;;;;5025150;28;20109;-59
2022/06/09 07:19:11;;;;;;;0.00;0.00;;;;;;;;;;5013994;28;20061;-59
2022/06/09 07:21:37;;;;;;;0.00;0.00;;;;;;;;;;5015569;28;21701;-59
2022/06/09 07:24:04;;;;;;;0.00;0.00;;;;;;;;;;5014610;28;20057;-59
2022/06/09 07:26:31;;;;;;;0.00;0.00;;;;;;;;;;5018947;28;20172;-60
2022/06/09 07:28:57;;;;;;;0.00;0.00;;;;;;;;;;5028506;28;20214;-59
2022/06/09 07:31:23;;;;;;;0.00;0.00;;;;;;;;;;5028941;28;20105;-59
2022/06/09 07:33:50;;;;;;;0.00;0.00;;;;;;;;;;5016987;28;20442;-58
2022/06/09 07:36:18;;;;;;;0.00;0.00;;;;;;;;;;5018208;28;20521;-59
2022/06/09 07:38:44;;;;;;;0.00;0.00;;;;;;;;;;5024342;28;20112;-60
2022/06/09 07:41:11;;;;;;;0.20;0.10;;;;;;;;;;5028563;28;20096;-60
2022/06/09 07:43:54;;;;;;;0.00;0.00;;;;;;;;;;5028828;28;20183;-60
2022/06/09 07:46:21;;;;;;;1.45;0.45;;;;;;;;;;5028688;28;20654;-60
2022/06/09 07:48:48;;;;;;;0.00;0.00;;;;;;;;;;5028618;28;20120;-60
2022/06/09 07:51:15;;;;;;;0.00;0.00;;;;;;;;;;5026282;28;20065;-60
2022/06/09 07:53:42;;;;;;;0.00;0.00;;;;;;;;;;5014637;28;20069;-59
2022/06/09 07:56:09;;;;;;;0.00;0.00;;;;;;;;;;5009231;28;20107;-59
2022/06/09 07:58:35;;;;;;;0.00;0.00;;;;;;;;;;5012905;28;20054;-60
2022/06/09 08:01:02;;;;;;;0.00;0.00;;;;;;;;;;5019151;28;20517;-59
2022/06/09 08:03:28;;;;;;;0.00;0.00;;;;;;;;;;5016409;28;20150;-59
2022/06/09 08:05:55;;;;;;;0.00;0.00;;;;;;;;;;5014160;28;20081;-60
2022/06/09 08:08:42;;;;;;;0.00;0.00;;;;;;;;;;5029030;28;20524;-60
2022/06/09 08:11:09;;;;;;;0.00;0.00;;;;;;;;;;5025536;28;20058;-60
2022/06/09 08:13:36;;;;;;;0.00;0.00;;;;;;;;;;5015999;28;20058;-60
2022/06/09 08:16:03;;;;;;;0.00;0.00;;;;;;;;;;5029418;28;20102;-60
2022/06/09 08:18:30;;;;;;;0.00;0.00;;;;;;;;;;5012719;28;20054;-60
2022/06/09 08:20:56;;;;;;;0.05;0.03;;;;;;;;;;5011425;28;20533;-60
2022/06/09 08:23:40;;;;;;;0.00;0.00;;;;;;;;;;5012627;28;20046;-61
2022/06/09 08:26:06;;;;;;;0.00;0.00;;;;;;;;;;5012052;28;20050;-60
2022/06/09 08:28:33;;;;;;;0.00;0.00;;;;;;;;;;5022251;28;20059;-60
2022/06/09 08:30:59;;;;;;;0.00;0.00;;;;;;;;;;5012341;28;20059;-60
2022/06/09 08:33:26;;;;;;;0.00;0.00;;;;;;;;;;5012325;28;20055;-60
2022/06/09 08:35:53;;;;;;;0.00;0.00;;;;;;;;;;5012467;28;20054;-60
2022/06/09 08:38:23;;;;;;;0.00;0.00;;;;;;;;;;5011572;28;20563;-60
2022/06/09 08:40:58;;;;;;;0.00;0.00;;;;;;;;;;5012355;28;20595;-60
2022/06/09 08:43:45;;;;;;;0.00;0.00;;;;;;;;;;5012003;28;20058;-60
2022/06/09 08:46:26;;;;;;;0.00;0.00;;;;;;;;;;5016303;28;20056;-60
2022/06/09 08:48:55;;;;;;;0.00;0.00;;;;;;;;;;5026196;28;20062;-60
2022/06/09 08:51:32;;;;;;;0.38;0.25;;;;;;;;;;5019326;28;20054;-60
2022/06/09 08:54:04;;;;;;;0.00;0.00;;;;;;;;;;5017019;28;20128;-60
2022/06/09 08:56:30;;;;;;;0.10;0.10;;;;;;;;;;5029057;28;20128;-60
2022/06/09 08:59:01;;;;;;;0.00;0.00;;;;;;;;;;5021591;28;20051;-60
2022/06/09 09:01:33;;;;;;;0.00;0.00;;;;;;;;;;5030811;28;20864;-60
2022/06/09 09:04:13;;;;;;;0.00;0.00;;;;;;;;;;5023747;28;20464;-60
2022/06/09 09:06:52;;;;;;;0.00;0.00;;;;;;;;;;5015382;28;20053;-60
2022/06/09 09:09:23;;;;;;;0.00;0.00;;;;;;;;;;5023889;28;20109;-60
2022/06/09 09:12:13;;;;;;;0.00;0.00;;;;;;;;;;5012559;28;20089;-60
2022/06/09 09:14:58;;;;;;;0.00;0.00;;;;;;;;;;5010285;28;20551;-60
2022/06/09 09:17:28;;;;;;;0.00;0.00;;;;;;;;;;5028310;28;20057;-60
2022/06/09 09:20:04;;;;;;;0.00;0.00;;;;;;;;;;5029592;28;20053;-60
2022/06/09 09:22:52;;;;;;;0.00;0.00;;;;;;;;;;5019470;28;20552;-60
2022/06/09 09:25:21;;;;;;;0.00;0.00;;;;;;;;;;5010175;28;20493;-60
2022/06/09 09:27:52;;;;;;;0.00;0.00;;;;;;;;;;5028451;28;20062;-60
2022/06/09 09:30:21;;;;;;;0.00;0.00;;;;;;;;;;5014520;28;20563;-60
2022/06/09 09:32:50;;;;;;;0.08;0.08;;;;;;;;;;5021960;28;20054;-60
2022/06/09 09:35:35;;;;;;;0.00;0.00;;;;;;;;;;5011248;28;20583;-60
2022/06/09 09:38:02;;;;;;;0.10;0.10;;;;;;;;;;5010862;28;20062;-60
2022/06/09 09:40:29;;;;;;;0.17;0.17;;;;;;;;;;5011632;28;20561;-60
2022/06/09 09:42:58;;;;;;;0.00;0.00;;;;;;;;;;5009734;28;20413;-60
2022/06/09 09:45:36;;;;;;;0.10;0.00;;;;;;;;;;5022753;28;20101;-60
2022/06/09 09:48:04;;;;;;;0.00;0.00;;;;;;;;;;5019939;28;20067;-60
2022/06/09 09:50:51;;;;;;;0.10;0.10;;;;;;;;;;5010443;28;20061;-60
2022/06/09 09:53:18;;;;;;;0.00;0.00;;;;;;;;;;5010513;28;20054;-60
2022/06/09 09:55:50;;;;;;;0.00;0.00;;;;;;;;;;5010620;28;20516;-60
2022/06/09 09:58:25;;;;;;;0.00;0.00;;;;;;;;;;5021192;28;20058;-60
2022/06/09 10:00:54;;;;;;;0.00;0.00;;;;;;;;;;5013872;28;20452;-60
2022/06/09 10:09:46;;;;;;;0.00;0.00;;;;;;;;;;5010535;28;20110;-59
2022/06/09 10:12:18;;;;;;;0.10;0.00;;;;;;;;;;5010078;28;20058;-60
2022/06/09 10:14:48;;;;;;;0.00;0.00;;;;;;;;;;5010320;28;20096;-59
2022/06/09 10:17:26;;;;;;;0.17;0.10;;;;;;;;;;5010046;28;20057;-60
2022/06/09 10:20:19;;;;;;;0.17;0.13;;;;;;;;;;5010570;28;20046;-59
2022/06/09 10:23:04;;;;;;;0.00;0.00;;;;;;;;;;5008917;28;20500;-60
2022/06/09 10:25:50;;;;;;;0.10;0.10;;;;;;;;;;5010327;28;20267;-60
2022/06/09 10:28:33;;;;;;;0.00;0.00;;;;;;;;;;5010227;28;20457;-60
2022/06/09 10:31:02;;;;;;;0.00;0.00;;;;;;;;;;5016871;28;20461;-60
2022/06/09 10:33:33;;;;;;;0.08;0.08;;;;;;;;;;5010105;28;20062;-59
2022/06/09 10:36:02;;;;;;;1.35;1.13;;;;;;;;;;5011175;28;20054;-59
2022/06/09 10:38:36;;;;;;;0.00;0.00;;;;;;;;;;5027538;28;20054;-60
2022/06/09 10:41:04;;;;;;;0.00;0.00;;;;;;;;;;5024078;28;20109;-59
2022/06/09 10:43:34;;;;;;;0.10;0.10;;;;;;;;;;5029914;28;20483;-60
2022/06/09 10:46:03;;;;;;;0.00;0.00;;;;;;;;;;5028437;28;20058;-60
2022/06/09 10:57:31;;;;;;;0.00;0.00;;;;;;;;;;5010391;28;20109;-60
2022/06/09 11:00:05;;;;;;;0.00;0.00;;;;;;;;;;5013558;28;20109;-60
2022/06/09 11:02:33;;;;;;;0.20;0.10;;;;;;;;;;5029222;28;20590;-60
2022/06/09 11:04:59;;;;;;;;;;;;;;;;;;5029982;28;20065;-60
2022/06/09 11:07:29;;;;;;;0.47;0.25;;;;;;;;;;5018094;28;43002;-60
2022/06/09 11:10:01;;;;;;;0.00;0.00;;;;;;;;;;5027461;28;20571;-60
2022/06/09 11:12:36;;;;;;;0.32;0.20;;;;;;;;;;5025109;28;20109;-60
2022/06/09 11:15:27;;;;;;;0.00;0.00;;;;;;;;;;5008874;28;20105;-60
2022/06/09 11:18:05;;;;;;;0.00;0.00;;;;;;;;;;5010047;28;20058;-60
2022/06/09 11:20:44;;;;;;;0.00;0.00;;;;;;;;;;5027390;28;20499;-60
2022/06/09 11:23:16;;;;;;;0.30;0.05;;;;;;;;;;5049094;28;20065;-60
2022/06/09 11:25:43;;;;;;;0.00;0.00;;;;;;;;;;5029085;28;20050;-59
2022/06/09 11:28:24;;;;;;;0.00;0.00;;;;;;;;;;5022363;28;20104;-59
2022/06/09 11:30:53;;;;;;;0.00;0.00;;;;;;;;;;5027370;28;20053;-60
2022/06/09 11:33:20;;;;;;;0.00;0.00;;;;;;;;;;5049543;28;20946;-60
2022/06/09 11:35:55;;;;;;;3.00;0.80;;;;;;;;;;5049112;28;20111;-60
2022/06/09 11:38:33;;;;;;;0.00;0.00;;;;;;;;;;5030450;28;20058;-60
2022/06/09 11:41:09;;;;;;;0.00;0.00;;;;;;;;;;5029347;28;20516;-59
2022/06/09 11:44:11;;;;;;;0.32;0.22;;;;;;;;;;5027270;28;20062;-60
2022/06/09 11:46:39;;;;;;;0.00;0.00;;;;;;;;;;5039856;28;20054;-59
2022/06/09 11:49:25;;;;;;;0.00;0.00;;;;;;;;;;5034981;28;20112;-60
2022/06/09 11:51:52;;;;;;;0.00;0.00;;;;;;;;;;5027505;28;20058;-59
2022/06/09 11:54:39;;;;;;;0.13;0.13;;;;;;;;;;5026896;28;20109;-60
2022/06/09 11:57:18;;;;;;;0.00;0.00;;;;;;;;;;5018931;28;20054;-59
2022/06/09 11:59:54;;;;;;;0.00;0.00;;;;;;;;;;5028281;28;20062;-59
2022/06/09 12:02:39;;;;;;;0.00;0.00;;;;;;;;;;5033292;28;20487;-60
2022/06/09 12:05:24;;;;;;;0.15;0.00;;;;;;;;;;5048532;28;20061;-60
2022/06/09 12:08:03;;;;;;;0.00;0.00;;;;;;;;;;5048202;28;20505;-59
2022/06/09 12:10:48;;;;;;;0.00;0.00;;;;;;;;;;5017294;28;20608;-59
2022/06/09 12:13:20;;;;;;;0.00;0.00;;;;;;;;;;5018856;28;20890;-60
2022/06/09 12:15:58;;;;;;;1.45;0.63;;;;;;;;;;5014663;28;20062;-60
2022/06/09 12:18:30;;;;;;;3.33;3.03;;;;;;;;;;5022155;28;20112;-60
2022/06/09 12:21:03;;;;;;;0.00;0.00;;;;;;;;;;5027950;28;20058;-60
2022/06/09 12:23:36;;;;;;;0.10;0.10;;;;;;;;;;5025738;28;20054;-60
2022/06/09 12:26:09;;;;;;;0.10;0.10;;;;;;;;;;5011835;28;20058;-60
2022/06/09 12:28:44;;;;;;;0.10;0.00;;;;;;;;;;5023715;28;20053;-59
2022/06/09 12:31:13;;;;;;;56.47;4.80;;;;;;;;;;5015447;28;20046;-59
2022/06/09 12:33:45;;;;;;;0.10;0.10;;;;;;;;;;5007583;28;20082;-59
2022/06/09 12:36:12;;;;;;;0.00;0.00;;;;;;;;;;5013863;28;20054;-59
2022/06/09 12:38:41;;;;;;;0.00;0.00;;;;;;;;;;5008392;28;20050;-59
2022/06/09 12:41:26;;;;;;;0.10;0.10;;;;;;;;;;5008733;28;20062;-59
2022/06/09 12:44:04;;;;;;;0.00;0.00;;;;;;;;;;5008492;28;20077;-59
2022/06/09 12:46:31;;;;;;;0.00;0.00;;;;;;;;;;5019626;28;20108;-60
2022/06/09 12:48:58;;;;;;;0.43;0.35;;;;;;;;;;5024847;28;20850;-60
2022/06/09 12:51:29;;;;;;;0.00;0.00;;;;;;;;;;5012825;28;20513;-60
2022/06/09 12:54:07;;;;;;;0.05;0.05;;;;;;;;;;5028073;28;20105;-60
2022/06/09 12:56:37;;;;;;;0.10;0.10;;;;;;;;;;5028490;28;20549;-60
2022/06/09 12:59:18;;;;;;;0.10;0.10;;;;;;;;;;5026968;28;20132;-60
2022/06/09 13:01:52;;;;;;;0.00;0.00;;;;;;;;;;5031284;28;20554;-60
2022/06/09 13:04:19;;;;;;;0.00;0.00;;;;;;;;;;5019122;28;20082;-60
2022/06/09 13:06:48;;;;;;;0.00;0.00;;;;;;;;;;5011683;28;20050;-61
2022/06/09 13:09:20;;;;;;;0.00;0.00;;;;;;;;;;5011823;28;20054;-60
2022/06/09 13:14:38;;;;;;;0.00;0.00;;;;;;;;;;5010884;28;20047;-60
2022/06/09 13:17:07;;;;;;;0.00;0.00;;;;;;;;;;5011125;28;20050;-60
2022/06/09 13:19:34;;;;;;;0.00;0.00;;;;;;;;;;5011217;28;20066;-60
2022/06/09 13:22:04;;;;;;;0.20;0.10;;;;;;;;;;5011051;28;20070;-57
2022/06/09 13:24:33;;;;;;;0.00;0.00;;;;;;;;;;5010285;28;20570;-57
2022/06/09 13:27:00;;;;;;;0.00;0.00;;;;;;;;;;5011840;28;20054;-60
2022/06/09 13:29:35;;;;;;;0.38;0.35;;;;;;;;;;5044075;28;20053;-60
2022/06/09 13:32:08;;;;;;;0.20;0.20;;;;;;;;;;5050931;28;20053;-60
2022/06/09 13:34:36;;;;;;;2.00;1.35;;;;;;;;;;5050179;28;20542;-60
2022/06/09 13:37:09;;;;;;;0.00;0.00;;;;;;;;;;5050281;28;20049;-60
2022/06/09 13:39:37;;;;;;;0.00;0.00;;;;;;;;;;5046379;28;20212;-60
2022/06/09 13:42:04;;;;;;;;;;;;;;;;;;5013611;28;20051;-57
2022/06/09 13:44:37;;;;;;;0.00;0.00;;;;;;;;;;5048912;28;42683;-60
2022/06/09 13:47:04;;;;;;;0.20;0.05;;;;;;;;;;5050404;28;20050;-60
2022/06/09 13:49:38;;;;;;;0.00;0.00;;;;;;;;;;5041932;28;20093;-60
2022/06/09 13:52:06;;;;;;;0.00;0.00;;;;;;;;;;5030087;28;20512;-57
2022/06/09 13:54:34;;;;;;;2.42;0.55;;;;;;;;;;5030622;28;20609;-58
2022/06/09 13:57:00;;;;;;;0.00;0.00;;;;;;;;;;5030671;28;20112;-58
2022/06/09 13:59:26;;;;;;;0.15;0.10;;;;;;;;;;5030043;28;20046;-58
2022/06/09 14:01:53;;;;;;;0.00;0.00;;;;;;;;;;5030652;28;20508;-59
2022/06/09 14:04:24;;;;;;;0.00;0.00;;;;;;;;;;5050287;28;20149;-58
2022/06/09 14:06:50;;;;;;;0.38;0.38;;;;;;;;;;5050360;28;20504;-58
2022/06/09 14:09:17;;;;;;;0.00;0.00;;;;;;;;;;5050611;28;20057;-58
2022/06/09 14:11:44;;;;;;;0.88;0.35;;;;;;;;;;5037768;28;20061;-58
2022/06/09 14:14:30;;;;;;;1.67;0.63;;;;;;;;;;5029613;28;20054;-58
2022/06/09 14:16:57;;;;;;;0.10;0.10;;;;;;;;;;5020864;28;20113;-58
2022/06/09 14:19:23;;;;;;;0.00;0.00;;;;;;;;;;5042305;28;20103;-58
2022/06/09 14:21:49;;;;;;;0.13;0.13;;;;;;;;;;5049741;28;20053;-58
2022/06/09 14:24:18;;;;;;;0.13;0.13;;;;;;;;;;5049970;28;20050;-59
2022/06/09 14:26:46;;;;;;;0.10;0.10;;;;;;;;;;5050044;28;20061;-59
2022/06/09 14:29:14;;;;;;;0.00;0.00;;;;;;;;;;5049712;28;20089;-57
2022/06/09 14:31:40;;;;;;;;;;;;;;;;;;5050035;28;20409;-58
2022/06/09 14:34:07;;;;;;;0.10;0.10;;;;;;;;;;5040464;28;44280;-58
2022/06/09 14:36:34;;;;;;;0.00;0.00;;;;;;;;;;5049925;28;20542;-58
2022/06/09 14:39:02;;;;;;;0.00;0.00;;;;;;;;;;5044487;28;20104;-58
2022/06/09 14:41:28;;;;;;;0.10;0.10;;;;;;;;;;5012105;28;20054;-58
2022/06/09 14:43:55;;;;;;;0.03;0.03;;;;;;;;;;5010057;28;20532;-58
2022/06/09 14:46:24;;;;;;;0.00;0.00;;;;;;;;;;5009500;28;20513;-58
2022/06/09 14:48:50;;;;;;;0.00;0.00;;;;;;;;;;5009247;28;20058;-58
2022/06/09 14:51:17;;;;;;;0.10;0.10;;;;;;;;;;5009643;28;20062;-58
2022/06/09 14:53:43;;;;;;;0.15;0.15;;;;;;;;;;5009431;28;20579;-58
2022/06/09 14:56:12;;;;;;;0.20;0.20;;;;;;;;;;5009161;28;20066;-58
2022/06/09 14:58:38;;;;;;;0.00;0.00;;;;;;;;;;5009965;28;20481;-58
2022/06/09 15:01:04;;;;;;;0.38;0.35;;;;;;;;;;5009460;28;20556;-58
2022/06/09 15:03:31;;;;;;;0.00;0.00;;;;;;;;;;5008959;28;20484;-58
2022/06/09 15:06:00;;;;;;;0.55;0.50;;;;;;;;;;5009045;28;20042;-58
2022/06/09 15:08:26;;;;;;;0.05;0.05;;;;;;;;;;5022125;28;20054;-58
2022/06/09 15:10:53;;;;;;;0.00;0.00;;;;;;;;;;5016555;28;20058;-59
2022/06/09 15:13:20;;;;;;;0.10;0.10;;;;;;;;;;5025847;28;20112;-58
2022/06/09 15:15:48;;;;;;;0.00;0.00;;;;;;;;;;5026058;28;20274;-58
2022/06/09 15:18:16;;;;;;;0.00;0.00;;;;;;;;;;5009171;28;20595;-58
2022/06/09 15:20:43;;;;;;;0.20;0.20;;;;;;;;;;5009481;28;20431;-58
2022/06/09 15:23:11;;;;;;;0.70;0.43;;;;;;;;;;5008570;28;20054;-58
2022/06/09 15:25:37;;;;;;;0.00;0.00;;;;;;;;;;5024313;28;20053;-58
2022/06/09 15:28:05;;;;;;;0.10;0.10;;;;;;;;;;5023725;28;20121;-59